»·PEaware :: SWA1011 KOAK-KLAX

SWA1011 :: KOAK-KLAX

FLIGHT INFORMATION

Flight Status: Arrived
Operator:
Southwest Airlines
More flights by this operator :: More flights under this callsign
Pilot: Daniel W. (24238)
Aircraft: BOEING 737-800
(B738)
More flights by this aircraft type
Origin: KOAK Metro Oakland Intl
United States
Destination: KLAX Los Angeles Intl
United States
More flights between these airports :: More routes between these airports
Route: CNDEL5 SUSEY EBAYE BURGL IRNMN2
File this flight plan on PilotEdge
Remarks: PBN / A1C1D1L1O1S2TI NAV / RNVD1E1A1 RNP10 RNP4 DAT / 1FANSE2PDC SUR / 260B REG / N8694E EET / KZLA0027 SEL / AEBS CODE / ABF32F
Altitude:
(Current/Filed)
35,000ft
Speed:
(Current/Filed)
459kts
Departed: 27-Sep-22 04:33 PM
Arrived: 27-Sep-22 05:33 PM
Distance/Time
Traveled:
293nm/1:00
Distance/Time
To Go:
Arrived

Flight Plot

Page will automatically refresh every two minutes.

Flight plan parsing failed; only flown route is shown


Map Options




Map Legend


Flown Route
Filed Route
Departure Airport
Arrival Airport
Navaid (VOR, NDB)
Fix

Horizontal Profiles

Position Reports

Time Latitude Longitude Heading Altitude Ground
Speed
27-Sep-22 15:57 37.711498 -122.214263 307 14ft 0kts
27-Sep-22 15:58 37.711498 -122.214263 307 14ft 0kts
27-Sep-22 15:59 37.711498 -122.214263 307 14ft 0kts
27-Sep-22 16:00 37.711498 -122.214263 307 14ft 0kts
27-Sep-22 16:01 37.711498 -122.214263 307 14ft 0kts
27-Sep-22 16:02 37.711498 -122.214263 307 14ft 0kts
27-Sep-22 16:03 37.711498 -122.214263 307 14ft 0kts
27-Sep-22 16:04 37.711498 -122.214263 307 14ft 0kts
27-Sep-22 16:05 37.711498 -122.214263 307 14ft 0kts
27-Sep-22 16:06 37.711498 -122.214263 307 14ft 0kts
27-Sep-22 16:07 37.711498 -122.214263 307 14ft 0kts
27-Sep-22 16:08 37.711498 -122.214263 307 14ft 0kts
27-Sep-22 16:09 37.711498 -122.214263 307 14ft 0kts
27-Sep-22 16:10 37.711498 -122.214263 307 14ft 0kts
27-Sep-22 16:11 37.711498 -122.214263 307 14ft 0kts
27-Sep-22 16:12 37.711498 -122.214263 307 14ft 0kts
27-Sep-22 16:13 37.711498 -122.214263 307 14ft 0kts
27-Sep-22 16:14 37.711498 -122.214263 307 14ft 0kts
27-Sep-22 16:15 37.711498 -122.214263 307 14ft 0kts
27-Sep-22 16:16 37.711498 -122.214263 307 14ft 0kts
27-Sep-22 16:17 37.711498 -122.214263 307 14ft 0kts
27-Sep-22 16:18 37.711498 -122.214263 307 14ft 0kts
27-Sep-22 16:19 37.711498 -122.214263 307 14ft 0kts
27-Sep-22 16:20 37.711498 -122.214263 307 14ft 0kts
27-Sep-22 16:21 37.711498 -122.214263 307 14ft 0kts
27-Sep-22 16:22 37.711498 -122.214262 307 14ft 0kts
27-Sep-22 16:23 37.711498 -122.214262 307 14ft 0kts
27-Sep-22 16:24 37.711498 -122.214262 307 14ft 0kts
27-Sep-22 16:25 37.711310 -122.213950 307 16ft 2kts
27-Sep-22 16:26 37.711154 -122.213690 307 15ft 0kts
27-Sep-22 16:27 37.711154 -122.213690 307 15ft 0kts
27-Sep-22 16:28 37.710893 -122.214042 203 15ft 9kts
27-Sep-22 16:29 37.709407 -122.215333 216 16ft 2kts
27-Sep-22 16:30 37.706758 -122.217812 181 20ft 15kts
27-Sep-22 16:31 37.702851 -122.213662 161 19ft 14kts
27-Sep-22 16:32 37.707466 -122.223270 309 15ft 130kts
27-Sep-22 16:33 37.737667 -122.268956 308 1856ft 216kts
27-Sep-22 16:34 37.783794 -122.338843 302 3872ft 264kts
27-Sep-22 16:35 37.766115 -122.416009 201 7007ft 268kts
27-Sep-22 16:36 37.691386 -122.432894 190 10391ft 281kts
27-Sep-22 16:37 37.602891 -122.451185 190 11995ft 347kts
27-Sep-22 16:38 37.504761 -122.467528 172 14666ft 368kts
27-Sep-22 16:39 37.423448 -122.386097 134 17166ft 391kts
27-Sep-22 16:40 37.348773 -122.283188 134 19357ft 406kts
27-Sep-22 16:41 37.270514 -122.177000 134 21305ft 421kts
27-Sep-22 16:42 37.189418 -122.067564 134 23123ft 436kts
27-Sep-22 16:43 37.105593 -121.954863 134 24666ft 448kts
27-Sep-22 16:44 37.019629 -121.839683 134 26070ft 458kts
27-Sep-22 16:45 36.931500 -121.722027 134 27376ft 468kts
27-Sep-22 16:46 36.841194 -121.601904 134 28587ft 479kts
27-Sep-22 16:47 36.749215 -121.480008 134 29756ft 488kts
27-Sep-22 16:48 36.656274 -121.357277 133 31330ft 483kts
27-Sep-22 16:49 36.564483 -121.236534 133 32855ft 477kts
27-Sep-22 16:50 36.473847 -121.117719 133 34281ft 471kts
27-Sep-22 16:51 36.385335 -120.997617 130 34997ft 474kts
27-Sep-22 16:52 36.300432 -120.874076 130 34998ft 469kts
27-Sep-22 16:53 36.215118 -120.751862 130 35001ft 469kts
27-Sep-22 16:54 36.129367 -120.629623 130 34993ft 469kts
27-Sep-22 16:56 36.043835 -120.508098 130 34986ft 469kts
27-Sep-22 16:57 35.957980 -120.386544 131 34983ft 469kts
27-Sep-22 16:58 35.871436 -120.266976 138 34967ft 468kts
27-Sep-22 16:59 35.779059 -120.192762 149 34977ft 467kts
27-Sep-22 17:00 35.668332 -120.109767 149 34968ft 467kts
27-Sep-22 17:01 35.557534 -120.026167 149 34968ft 467kts
27-Sep-22 17:02 35.447028 -119.942909 149 34946ft 467kts
27-Sep-22 17:03 35.336046 -119.859587 149 34890ft 468kts
27-Sep-22 17:04 35.228564 -119.770043 142 32530ft 471kts
27-Sep-22 17:05 35.126392 -119.672440 143 30430ft 460kts
27-Sep-22 17:06 35.026153 -119.579201 143 28362ft 445kts
27-Sep-22 17:07 34.929189 -119.489236 144 26422ft 431kts
27-Sep-22 17:08 34.834204 -119.403734 145 24620ft 419kts
27-Sep-22 17:09 34.741337 -119.320833 145 22950ft 403kts
27-Sep-22 17:10 34.651652 -119.242546 145 21150ft 391kts
27-Sep-22 17:11 34.563948 -119.166910 145 19379ft 384kts
27-Sep-22 17:12 34.477723 -119.090562 144 17542ft 379kts
27-Sep-22 17:13 34.393452 -119.016901 144 15838ft 368kts
27-Sep-22 17:14 34.312009 -118.945314 141 14190ft 357kts
27-Sep-22 17:15 34.233553 -118.873746 141 12500ft 348kts
27-Sep-22 17:16 34.160976 -118.806863 138 11885ft 311kts
27-Sep-22 17:17 34.097515 -118.737426 136 10657ft 305kts
27-Sep-22 17:18 34.035946 -118.669308 125 9815ft 286kts
27-Sep-22 17:19 34.021510 -118.578126 95 8667ft 278kts
27-Sep-22 17:20 34.023189 -118.485613 82 7509ft 276kts
27-Sep-22 17:21 34.033115 -118.393956 81 6416ft 274kts
27-Sep-22 17:22 34.043284 -118.303562 81 4738ft 270kts
27-Sep-22 17:23 34.053717 -118.214620 81 3073ft 266kts
27-Sep-22 17:23 34.061987 -118.142854 81 2563ft 246kts
27-Sep-22 17:25 34.062473 -118.051728 127 2611ft 257kts
27-Sep-22 17:26 34.003979 -118.053824 230 2589ft 228kts
27-Sep-22 17:27 33.980799 -118.119516 264 2603ft 224kts
27-Sep-22 17:28 33.973839 -118.192148 264 2561ft 201kts
27-Sep-22 17:28 33.968242 -118.245803 263 2559ft 189kts
27-Sep-22 17:30 33.960752 -118.317980 263 1491ft 168kts
27-Sep-22 17:31 33.955561 -118.367926 263 699ft 142kts
27-Sep-22 17:32 33.950915 -118.413658 263 123ft 98kts
27-Sep-22 17:32 33.948702 -118.426555 227 121ft 24kts
27-Sep-22 17:33 33.946575 -118.424842 82 124ft 16kts
27-Sep-22 17:34 33.947129 -118.419495 82 124ft 19kts
27-Sep-22 17:36 33.948086 -118.411574 82 122ft 22kts
27-Sep-22 17:36 33.948663 -118.405774 82 124ft 19kts
27-Sep-22 17:37 33.948431 -118.400364 114 122ft 11kts
27-Sep-22 17:38 33.947663 -118.400624 246 123ft 0kts
27-Sep-22 17:39 33.947663 -118.400624 246 124ft 0kts
27-Sep-22 17:40 33.947663 -118.400624 246 124ft 0kts
27-Sep-22 17:41 33.947663 -118.400624 246 124ft 0kts
27-Sep-22 17:42 33.947663 -118.400624 246 124ft 0kts
27-Sep-22 17:43 33.947663 -118.400624 246 124ft 0kts

Navigation Log

Ident Type
Flight plan parsing failed, navigation log unavailable